Tyndall Air Force Base
KPAM : now visible

Airfield :











YOU CAN JOIN US ON...

 
LOGIN :

Register | Disclaimer

   EN    FR    IT 

 









Legend :    VFR   Marginal VFR   IFR   Intensive IFR   Very Intensive IFR
Visi :
Ceiling :
>= 8 km
>= 3000ft
5 to 8 km
1000 to 3000 ft
1500m to 5 km
500 to 1000 ft
800 to 1500m
200 to 500 ft
< 800m
< 200 ft
Symbols :   Thunderstorms  Fog  Heavy snow  Heavy precipitations  Wind > 20 kt






- Airport Elevation : 17 ft


KPAM - Tyndall Air Force Base

CURRENT METAR :
  • 271356Z 08010KT 10SM BKN008 BKN015 OVC032 25/23 A3005 RMK AO2A SLP179 T02480225 $

EXPIRED METARs :
  • 271256Z 08007KT 10SM OVC008 24/22 A3004 RMK AO2A SLP175 T02390221 $

TAF AMD TAF KPAM
Valid from the 27 at 12:00 until the 28 at 17:00 UTC


271230Z 2712/2817 09009KT 9999 SCT007 BKN025 QNH3000INS
TEMPO 2712/2715 BKN007
BECMG 2715/2716 12012G18KT 9000 -SHRA SCT010 BKN030 QNH3000INS
TEMPO 2716/2722 8000 -TSRA BKN020CB
BECMG 2722/2723 12009KT 9999 NSW BKN050 QNH2999INS
BECMG 2811/2812 12015G25KT 9999 BKN018 QNH2999INS TX29/2719Z TN22/2811Z
KZJX FIR / North America



MET'MAP, your aeronautical weather chart ! - Copyright ORBIFLY December 2007 - Disclaimer

ORBIFLY MET'MAP TEAM :

Programming & Development : Alexandra Zaïnal
Concept & original design : Baudouin d'Aumeries
Assistance for programming : Marc-Olivier Méhu
Technical & hardware support : Manuel Goepfert

Contact : metmap@orbifly.com




SOURCES & CREDITS :

   NOAA       Earth
Advisory